بغداد, العراق

06:51 PM AST on لبراêر 28, 2015 (GMT +0300)
Baghdad International Air | Change Station
CLOSE
Current Station
Airport
Location: Baghdad International Air,
Elevation: 115 ft
Nearby Weather Stations

Elev 115 ft 33.26 °N, 44.23 °E | Updated 21 minutes ago

Clear
صافية
68 °F
Feels Like 68 °F
N
6
ريح متغير ريح from ESE

هذا اليوم
High -- | Low -- °F
--% Chance of Precip.
Yesterday
High -- | Low -- °F
Precip. -- في
6:33 AM 5:58 PM
الأحدب الأول, 78% visible
الضغط 29.92 في
وضوح الرؤية -9999.0 أميال
سحابات
نقطة الندى 34 °F
الرطوبة 28%
Rainfall 0.00 في
عمق الثلج Not available.
الأشعة فوق البنفسجية Not available.
Pollen Not available.
جودة الهواء Not available.
Flu Activity Not available.
METAR ORBI 281530Z 12005KT CAVOK 20/01 Q1013

More Conditions Fewer Conditions

الضغط 29.92 في
وضوح الرؤية -9999.0 أميال
سحابات
نقطة الندى 34 °F
الرطوبة 28%
Rainfall 0.00 في
عمق الثلج Not available.
الأشعة فوق البنفسجية Not available.
Pollen Not available.
جودة الهواء Not available.
Flu Activity Not available.
METAR ORBI 281530Z 12005KT CAVOK 20/01 Q1013

More Conditions Fewer Conditions

10-Day Weather Forecast

Almanac

علم الفلك

Feb. 28, 2015 Rise Set
Actual Time
Civil Twilight
Nautical Twilight
Astronomical Twilight
قمر
Length Of Visible Light
طول الیوم
Tomorrow will be .
, % of the Moon is Illuminated

Today's Extremes

Country Highs Country Lows

Community

WunderPhotos

Upload Photos

1,801,055 photos uploaded!

WunderBlogs® & News

Nearby

جودة الهواء

  جودة الهواء AQ Index Pollutant
Not available.

عمق الثلج

Station Depth Elevation

Earthquake Activity

City Distance Mag. Time & Date
Minimum magnitude displayed is 2.5.

Coastal Water Temperatures

مكان درجات الحرارة

Nearby Weather Stations